Time;durP1;ratioP1;P1;durP2;ratioP2;P2;SDS_P1;SDS_P2;PMS_P1;PMS_P2;Temp;Humidity;BMP_temperature;BMP_pressure;BME280_temperature;BME280_humidity;BME280_pressure;Samples;Min_cycle;Max_cycle;Signal;HPM_P1;HPM_P2
2023/07/21 00:01:13;;;;;;;2.42;2.22;;;;;;;;;;4916378;29;20066;-69
2023/07/21 00:03:41;;;;;;;4.13;2.78;;;;;;;;;;4915060;29;20028;-70
2023/07/21 00:06:07;;;;;;;4.63;2.65;;;;;;;;;;4916324;29;20400;-70
2023/07/21 00:08:34;;;;;;;3.38;2.80;;;;;;;;;;4917280;29;20031;-68
2023/07/21 00:11:00;;;;;;;2.75;2.53;;;;;;;;;;4916171;29;20060;-67
2023/07/21 00:13:26;;;;;;;6.57;2.97;;;;;;;;;;4916067;29;20023;-68
2023/07/21 00:15:52;;;;;;;4.75;2.60;;;;;;;;;;4916087;29;20079;-68
2023/07/21 00:18:19;;;;;;;3.00;2.80;;;;;;;;;;4915364;29;20168;-68
2023/07/21 00:20:46;;;;;;;5.45;3.28;;;;;;;;;;4915956;29;20057;-69
2023/07/21 00:23:12;;;;;;;3.10;2.83;;;;;;;;;;4916048;29;20066;-68
2023/07/21 00:25:39;;;;;;;2.85;2.50;;;;;;;;;;4916137;29;20039;-68
2023/07/21 00:28:05;;;;;;;3.22;2.90;;;;;;;;;;4915560;29;20024;-67
2023/07/21 00:30:31;;;;;;;4.07;2.92;;;;;;;;;;4915788;29;20025;-68
2023/07/21 00:32:57;;;;;;;3.15;2.85;;;;;;;;;;4924248;29;20028;-68
2023/07/21 00:35:23;;;;;;;6.55;3.30;;;;;;;;;;4916497;29;20035;-69
2023/07/21 00:37:49;;;;;;;4.25;2.95;;;;;;;;;;4923338;29;20021;-69
2023/07/21 00:40:18;;;;;;;3.63;3.33;;;;;;;;;;4915801;29;20526;-67
2023/07/21 00:42:45;;;;;;;3.72;3.13;;;;;;;;;;4915421;29;20035;-68
2023/07/21 00:45:13;;;;;;;3.47;3.17;;;;;;;;;;4913946;29;20104;-68
2023/07/21 00:47:39;;;;;;;3.10;2.80;;;;;;;;;;4913391;29;20519;-68
2023/07/21 00:50:05;;;;;;;3.78;3.45;;;;;;;;;;4921321;29;20060;-68
2023/07/21 00:52:31;;;;;;;3.58;3.13;;;;;;;;;;4919485;29;20023;-68
2023/07/21 00:54:57;;;;;;;3.55;3.03;;;;;;;;;;4932489;29;20024;-68
2023/07/21 00:57:24;;;;;;;4.00;3.10;;;;;;;;;;4913450;29;20016;-69
2023/07/21 00:59:50;;;;;;;3.20;2.90;;;;;;;;;;4915608;29;20032;-68
2023/07/21 01:02:17;;;;;;;7.75;3.58;;;;;;;;;;4914986;29;20032;-69
2023/07/21 01:04:44;;;;;;;3.75;3.42;;;;;;;;;;4915581;29;20024;-69
2023/07/21 01:07:10;;;;;;;5.63;3.40;;;;;;;;;;4915139;29;20432;-68
2023/07/21 01:09:36;;;;;;;4.13;3.55;;;;;;;;;;4915793;29;20488;-69
2023/07/21 01:12:03;;;;;;;4.35;3.58;;;;;;;;;;4915409;29;20072;-69
2023/07/21 01:14:29;;;;;;;3.90;3.50;;;;;;;;;;4923541;29;20016;-69
2023/07/21 01:16:56;;;;;;;8.75;3.92;;;;;;;;;;4915323;29;20415;-69
2023/07/21 01:19:22;;;;;;;4.43;4.00;;;;;;;;;;4915075;29;20614;-69
2023/07/21 01:21:52;;;;;;;5.40;3.35;;;;;;;;;;4915260;29;20035;-68
2023/07/21 01:24:30;;;;;;;4.53;4.10;;;;;;;;;;4915066;29;20028;-69
2023/07/21 01:26:56;;;;;;;4.50;3.90;;;;;;;;;;4921580;29;20031;-70
2023/07/21 01:29:25;;;;;;;4.30;4.00;;;;;;;;;;4915741;29;20020;-69
2023/07/21 01:31:52;;;;;;;4.10;3.78;;;;;;;;;;4921152;29;20380;-69
2023/07/21 01:34:18;;;;;;;6.10;4.15;;;;;;;;;;4916618;29;20457;-70
2023/07/21 01:36:45;;;;;;;5.95;3.92;;;;;;;;;;4914667;29;20088;-68
2023/07/21 01:39:11;;;;;;;3.90;3.60;;;;;;;;;;4914920;29;20107;-68
2023/07/21 01:41:38;;;;;;;3.70;3.40;;;;;;;;;;4914964;29;20430;-68
2023/07/21 01:44:04;;;;;;;4.07;3.40;;;;;;;;;;4922421;29;20059;-68
2023/07/21 01:46:31;;;;;;;4.95;3.45;;;;;;;;;;4922385;29;20481;-69
2023/07/21 01:48:58;;;;;;;5.20;3.75;;;;;;;;;;4914853;29;20024;-68
2023/07/21 01:51:24;;;;;;;4.57;4.10;;;;;;;;;;4914696;29;20036;-68
2023/07/21 01:54:01;;;;;;;4.05;3.65;;;;;;;;;;4917267;29;20400;-68
2023/07/21 01:56:41;;;;;;;4.18;3.83;;;;;;;;;;4913726;29;20024;-65
2023/07/21 01:59:10;;;;;;;7.75;4.28;;;;;;;;;;4913329;29;20523;-68
2023/07/21 02:01:37;;;;;;;4.30;3.90;;;;;;;;;;4915083;29;20119;-68
2023/07/21 02:04:03;;;;;;;7.68;4.40;;;;;;;;;;4916854;29;20075;-68
2023/07/21 02:06:30;;;;;;;5.18;3.90;;;;;;;;;;4914524;29;20028;-68
2023/07/21 02:08:56;;;;;;;7.03;4.10;;;;;;;;;;4914617;29;20463;-70
2023/07/21 02:11:22;;;;;;;5.32;4.72;;;;;;;;;;4914482;29;20043;-68
2023/07/21 02:13:48;;;;;;;5.25;4.20;;;;;;;;;;4919210;29;20032;-69
2023/07/21 02:16:14;;;;;;;5.03;4.05;;;;;;;;;;4919644;29;20088;-69
2023/07/21 02:18:41;;;;;;;4.68;4.28;;;;;;;;;;4918262;29;20047;-71
2023/07/21 02:21:07;;;;;;;5.38;4.60;;;;;;;;;;4918154;29;20154;-67
2023/07/21 02:23:33;;;;;;;4.53;3.92;;;;;;;;;;4924718;29;20028;-68
2023/07/21 02:26:00;;;;;;;6.32;4.53;;;;;;;;;;4918204;29;20487;-71
2023/07/21 02:28:26;;;;;;;5.03;4.53;;;;;;;;;;4917598;29;20431;-70
2023/07/21 02:31:02;;;;;;;5.30;4.18;;;;;;;;;;4932466;29;20050;-69
2023/07/21 02:33:29;;;;;;;7.78;4.57;;;;;;;;;;4947979;29;20591;-69
2023/07/21 02:35:55;;;;;;;5.25;4.03;;;;;;;;;;4956170;28;20042;-69
2023/07/21 02:38:21;;;;;;;6.40;4.30;;;;;;;;;;4956082;28;20517;-67
2023/07/21 02:40:47;;;;;;;4.25;3.75;;;;;;;;;;4955455;28;20098;-69
2023/07/21 02:43:13;;;;;;;4.72;4.10;;;;;;;;;;4951684;28;20426;-71
2023/07/21 02:45:39;;;;;;;4.47;3.97;;;;;;;;;;4936926;29;20075;-68
2023/07/21 02:48:08;;;;;;;5.18;4.03;;;;;;;;;;4944538;29;20031;-68
2023/07/21 02:50:34;;;;;;;4.85;4.28;;;;;;;;;;4955668;28;20609;-68
2023/07/21 02:53:00;;;;;;;5.30;4.18;;;;;;;;;;4953410;28;20114;-68
2023/07/21 02:55:27;;;;;;;5.82;4.55;;;;;;;;;;4955774;28;20047;-68
2023/07/21 02:57:53;;;;;;;4.80;4.20;;;;;;;;;;4955537;28;20027;-68
2023/07/21 03:00:19;;;;;;;4.32;4.03;;;;;;;;;;4955725;28;20038;-68
2023/07/21 03:02:45;;;;;;;7.25;3.97;;;;;;;;;;4955791;28;20550;-68
2023/07/21 03:05:11;;;;;;;4.72;4.28;;;;;;;;;;4954574;28;20033;-69
2023/07/21 03:07:39;;;;;;;17.20;11.20;;;;;;;;;;4940523;29;20387;-68
2023/07/21 03:10:06;;;;;;;6.07;4.50;;;;;;;;;;4955385;28;20035;-69
2023/07/21 03:12:32;;;;;;;5.47;4.50;;;;;;;;;;4958821;28;20108;-69
2023/07/21 03:14:59;;;;;;;6.47;4.85;;;;;;;;;;4941783;29;20164;-68
2023/07/21 03:17:25;;;;;;;6.10;4.60;;;;;;;;;;4952944;29;20403;-68
2023/07/21 03:19:51;;;;;;;5.32;4.82;;;;;;;;;;4955364;28;20031;-68
2023/07/21 03:22:17;;;;;;;6.85;4.85;;;;;;;;;;4948380;28;20124;-68
2023/07/21 03:24:43;;;;;;;4.60;4.20;;;;;;;;;;4955104;28;20027;-68
2023/07/21 03:27:12;;;;;;;6.93;4.53;;;;;;;;;;4953203;28;20171;-69
2023/07/21 03:29:38;;;;;;;5.38;4.88;;;;;;;;;;4955201;28;20030;-69
2023/07/21 03:32:04;;;;;;;6.55;4.47;;;;;;;;;;4955080;28;20038;-69
2023/07/21 03:34:30;;;;;;;7.68;4.63;;;;;;;;;;4954435;28;20518;-69
2023/07/21 03:36:56;;;;;;;5.85;4.18;;;;;;;;;;4940095;28;20055;-68
2023/07/21 03:39:23;;;;;;;5.15;3.55;;;;;;;;;;4938108;29;20020;-69
2023/07/21 03:41:49;;;;;;;7.85;4.10;;;;;;;;;;4954930;28;20027;-69
2023/07/21 03:44:15;;;;;;;14.23;4.95;;;;;;;;;;4954972;28;20031;-69
2023/07/21 03:46:41;;;;;;;17.65;10.85;;;;;;;;;;4954601;28;20026;-70
2023/07/21 03:49:11;;;;;;;4.57;3.33;;;;;;;;;;4943673;28;20419;-71
2023/07/21 03:51:39;;;;;;;3.90;2.92;;;;;;;;;;4953257;28;20051;-70
2023/07/21 03:54:05;;;;;;;3.65;2.70;;;;;;;;;;4950429;28;20443;-71
2023/07/21 03:56:31;;;;;;;3.45;2.25;;;;;;;;;;4952913;28;20019;-71
2023/07/21 03:58:58;;;;;;;3.17;2.28;;;;;;;;;;4952997;28;20032;-69
2023/07/21 04:01:24;;;;;;;3.55;2.17;;;;;;;;;;4952721;28;20484;-70
2023/07/21 04:03:53;;;;;;;3.50;2.10;;;;;;;;;;4953091;28;20567;-70
2023/07/21 04:06:23;;;;;;;3.20;1.83;;;;;;;;;;4954176;28;20561;-69
2023/07/21 04:08:51;;;;;;;2.22;1.95;;;;;;;;;;4954322;28;20023;-68
2023/07/21 04:11:17;;;;;;;3.70;1.83;;;;;;;;;;4954599;28;20557;-68
2023/07/21 04:13:43;;;;;;;2.58;2.08;;;;;;;;;;4954233;28;20078;-67
2023/07/21 04:16:09;;;;;;;4.95;2.00;;;;;;;;;;4954088;28;20459;-68
2023/07/21 04:18:36;;;;;;;1.50;1.40;;;;;;;;;;4954021;28;20068;-68
2023/07/21 04:21:02;;;;;;;3.85;1.63;;;;;;;;;;4942247;28;20031;-68
2023/07/21 04:23:28;;;;;;;3.65;1.50;;;;;;;;;;4952886;28;20431;-68
2023/07/21 04:25:54;;;;;;;6.63;1.58;;;;;;;;;;4954120;28;20062;-68
2023/07/21 04:28:20;;;;;;;7.13;1.50;;;;;;;;;;4946943;28;20044;-68
2023/07/21 04:30:47;;;;;;;4.65;1.63;;;;;;;;;;4953975;28;20032;-69
2023/07/21 04:33:13;;;;;;;5.18;1.50;;;;;;;;;;4953863;28;20102;-71
2023/07/21 04:35:46;;;;;;;2.40;1.60;;;;;;;;;;4954999;28;20031;-68
2023/07/21 04:38:12;;;;;;;1.77;1.67;;;;;;;;;;4952078;28;20027;-68
2023/07/21 04:40:38;;;;;;;3.70;1.35;;;;;;;;;;4953913;28;20451;-68
2023/07/21 04:43:04;;;;;;;2.67;1.50;;;;;;;;;;4953627;28;20086;-69
2023/07/21 04:45:30;;;;;;;5.47;1.27;;;;;;;;;;4952097;28;20026;-69
2023/07/21 04:47:57;;;;;;;2.47;1.38;;;;;;;;;;4952778;28;20521;-68
2023/07/21 04:50:23;;;;;;;5.53;1.83;;;;;;;;;;4953872;28;20035;-67
2023/07/21 04:52:49;;;;;;;4.13;1.40;;;;;;;;;;4950981;28;20020;-68
2023/07/21 04:55:15;;;;;;;2.17;1.33;;;;;;;;;;4953629;28;20402;-70
2023/07/21 04:57:42;;;;;;;3.53;1.50;;;;;;;;;;4953255;28;20778;-68
2023/07/21 05:00:11;;;;;;;5.00;1.20;;;;;;;;;;4953673;28;20035;-69
2023/07/21 05:02:37;;;;;;;1.88;1.40;;;;;;;;;;4953407;28;20068;-69
2023/07/21 05:05:04;;;;;;;1.65;1.00;;;;;;;;;;4953459;28;20135;-69
2023/07/21 05:07:30;;;;;;;2.55;1.20;;;;;;;;;;4953058;28;20110;-69
2023/07/21 05:09:56;;;;;;;2.42;1.05;;;;;;;;;;4944760;28;20110;-69
2023/07/21 05:12:23;;;;;;;3.05;1.30;;;;;;;;;;4951527;29;20046;-68
2023/07/21 05:14:49;;;;;;;3.15;1.30;;;;;;;;;;4933960;28;20027;-69
2023/07/21 05:17:16;;;;;;;1.70;0.82;;;;;;;;;;4931318;29;20039;-70
2023/07/21 05:19:43;;;;;;;1.65;0.98;;;;;;;;;;4933809;29;20407;-70
2023/07/21 05:22:09;;;;;;;2.45;1.25;;;;;;;;;;4930123;29;20429;-69
2023/07/21 05:24:35;;;;;;;1.00;0.90;;;;;;;;;;4945760;29;20046;-69
2023/07/21 05:27:02;;;;;;;3.42;1.48;;;;;;;;;;4953127;28;20554;-69
2023/07/21 05:29:28;;;;;;;3.50;1.70;;;;;;;;;;4953091;28;20082;-69
2023/07/21 05:31:54;;;;;;;2.85;1.00;;;;;;;;;;4945356;28;20024;-69
2023/07/21 05:34:21;;;;;;;3.08;1.35;;;;;;;;;;4953138;28;20031;-69
2023/07/21 05:36:47;;;;;;;1.67;0.95;;;;;;;;;;4952767;28;20078;-69
2023/07/21 05:39:13;;;;;;;3.05;1.52;;;;;;;;;;4952272;28;20023;-69
2023/07/21 05:41:39;;;;;;;2.33;0.85;;;;;;;;;;4951166;28;20075;-69
2023/07/21 05:44:05;;;;;;;3.45;1.52;;;;;;;;;;4950462;28;20035;-70
2023/07/21 05:46:31;;;;;;;4.30;1.25;;;;;;;;;;4943251;28;20026;-71
2023/07/21 05:48:57;;;;;;;3.83;1.02;;;;;;;;;;4952438;28;20107;-69
2023/07/21 05:51:23;;;;;;;2.63;1.25;;;;;;;;;;4954773;28;20031;-71
2023/07/21 05:53:50;;;;;;;1.00;0.90;;;;;;;;;;4952322;28;20459;-70
2023/07/21 05:56:16;;;;;;;2.72;1.25;;;;;;;;;;4956604;28;20023;-72
2023/07/21 05:58:41;;;;;;;4.15;1.08;;;;;;;;;;4956708;28;20025;-71
2023/07/21 06:01:10;;;;;;;2.42;1.33;;;;;;;;;;4956466;28;20034;-70
2023/07/21 06:03:37;;;;;;;4.80;1.65;;;;;;;;;;4956734;28;20563;-71
2023/07/21 06:06:04;;;;;;;5.05;2.03;;;;;;;;;;4956832;28;20376;-72
2023/07/21 06:08:30;;;;;;;9.05;1.80;;;;;;;;;;4956206;28;20031;-69
2023/07/21 06:11:02;;;;;;;3.13;1.80;;;;;;;;;;4956832;28;20028;-69
2023/07/21 06:13:29;;;;;;;8.82;1.70;;;;;;;;;;4957008;28;20108;-71
2023/07/21 06:15:56;;;;;;;3.50;1.65;;;;;;;;;;4956314;28;20019;-69
2023/07/21 06:18:22;;;;;;;4.22;1.70;;;;;;;;;;4970677;28;20039;-68
2023/07/21 06:20:48;;;;;;;1.63;1.52;;;;;;;;;;4955539;28;20027;-68
2023/07/21 06:23:14;;;;;;;7.05;2.33;;;;;;;;;;4954288;28;20668;-68
2023/07/21 06:25:41;;;;;;;4.10;1.67;;;;;;;;;;4939833;28;20031;-67
2023/07/21 06:28:07;;;;;;;3.95;1.75;;;;;;;;;;4931385;29;20024;-66
2023/07/21 06:30:34;;;;;;;2.75;2.20;;;;;;;;;;4932500;29;20032;-68
2023/07/21 06:33:00;;;;;;;8.27;2.28;;;;;;;;;;4922722;28;20032;-68
2023/07/21 06:35:26;;;;;;;6.18;1.88;;;;;;;;;;4931495;29;20027;-68
2023/07/21 06:37:52;;;;;;;3.90;2.20;;;;;;;;;;4925091;29;20384;-68
2023/07/21 06:40:19;;;;;;;2.10;1.90;;;;;;;;;;4933310;29;20104;-67
2023/07/21 06:42:45;;;;;;;3.08;1.65;;;;;;;;;;4925315;29;20528;-68
2023/07/21 06:45:11;;;;;;;4.55;1.92;;;;;;;;;;4930754;29;20063;-66
2023/07/21 06:47:38;;;;;;;7.65;2.35;;;;;;;;;;4934506;29;20028;-68
2023/07/21 06:50:04;;;;;;;7.20;2.25;;;;;;;;;;4936058;29;20031;-67
2023/07/21 06:52:30;;;;;;;4.38;2.22;;;;;;;;;;4923304;29;20503;-67
2023/07/21 06:54:58;;;;;;;2.33;2.10;;;;;;;;;;4936615;29;20080;-67
2023/07/21 06:57:24;;;;;;;2.88;2.33;;;;;;;;;;4943016;29;20020;-68
2023/07/21 06:59:50;;;;;;;3.25;2.25;;;;;;;;;;4949895;28;20038;-67
2023/07/21 07:02:17;;;;;;;3.83;2.38;;;;;;;;;;4954993;28;20027;-68
2023/07/21 07:04:44;;;;;;;2.45;2.25;;;;;;;;;;4954312;29;20032;-67
2023/07/21 07:07:10;;;;;;;2.13;1.90;;;;;;;;;;4970180;28;20030;-68
2023/07/21 07:09:36;;;;;;;7.65;2.38;;;;;;;;;;4955666;28;20023;-67
2023/07/21 07:12:03;;;;;;;6.53;2.45;;;;;;;;;;4955221;28;20046;-67
2023/07/21 07:14:30;;;;;;;9.70;2.47;;;;;;;;;;4953577;28;20016;-67
2023/07/21 07:16:56;;;;;;;8.77;2.60;;;;;;;;;;4938784;28;20518;-67
2023/07/21 07:19:22;;;;;;;5.63;2.47;;;;;;;;;;4952219;29;20035;-68
2023/07/21 07:21:48;;;;;;;4.75;2.45;;;;;;;;;;4953533;28;20027;-68
2023/07/21 07:24:14;;;;;;;6.20;2.63;;;;;;;;;;4953881;28;20550;-68
2023/07/21 07:26:40;;;;;;;5.43;2.65;;;;;;;;;;4953429;28;20034;-68
2023/07/21 07:29:06;;;;;;;3.17;2.25;;;;;;;;;;4953652;28;20035;-68
2023/07/21 07:31:32;;;;;;;4.85;2.15;;;;;;;;;;4954944;28;20079;-68
2023/07/21 07:33:58;;;;;;;5.15;1.98;;;;;;;;;;4953319;28;20028;-68
2023/07/21 07:36:24;;;;;;;3.22;2.17;;;;;;;;;;4953597;28;20078;-68
2023/07/21 07:38:50;;;;;;;3.92;2.13;;;;;;;;;;4953733;28;20034;-68
2023/07/21 07:41:18;;;;;;;6.18;2.58;;;;;;;;;;4953637;28;20027;-68
2023/07/21 07:43:45;;;;;;;4.40;2.08;;;;;;;;;;4953650;28;20035;-68
2023/07/21 07:46:11;;;;;;;7.15;2.70;;;;;;;;;;4953206;28;20028;-68
2023/07/21 07:48:37;;;;;;;3.50;2.17;;;;;;;;;;4948695;28;20064;-68
2023/07/21 07:51:07;;;;;;;6.70;2.17;;;;;;;;;;4950720;29;20031;-68
2023/07/21 07:53:33;;;;;;;4.28;2.17;;;;;;;;;;4966811;28;20030;-68
2023/07/21 07:55:59;;;;;;;7.10;2.50;;;;;;;;;;4963521;28;20035;-68
2023/07/21 07:58:25;;;;;;;5.80;2.30;;;;;;;;;;4949974;28;20031;-68
2023/07/21 08:00:54;;;;;;;3.20;1.88;;;;;;;;;;4954361;28;20035;-68
2023/07/21 08:03:20;;;;;;;2.53;1.40;;;;;;;;;;4954327;28;20027;-68
2023/07/21 08:05:47;;;;;;;5.00;1.60;;;;;;;;;;4953664;28;20034;-68
2023/07/21 08:08:14;;;;;;;2.53;1.60;;;;;;;;;;4953155;28;20031;-69
2023/07/21 08:10:41;;;;;;;2.47;1.65;;;;;;;;;;4953571;28;20031;-69
2023/07/21 08:13:08;;;;;;;7.88;1.90;;;;;;;;;;4952291;28;20020;-69
2023/07/21 08:15:34;;;;;;;2.22;1.83;;;;;;;;;;4953302;28;20034;-69
2023/07/21 08:18:00;;;;;;;4.85;2.10;;;;;;;;;;4953203;28;20031;-69
2023/07/21 08:20:26;;;;;;;2.67;1.67;;;;;;;;;;4953928;28;20091;-69
2023/07/21 08:22:52;;;;;;;3.28;2.20;;;;;;;;;;4954080;28;20038;-69
2023/07/21 08:25:18;;;;;;;6.47;2.15;;;;;;;;;;4953985;28;20114;-69
2023/07/21 08:27:45;;;;;;;2.00;1.80;;;;;;;;;;4953593;28;20184;-69
2023/07/21 08:30:11;;;;;;;2.85;1.92;;;;;;;;;;4953719;28;20027;-69
2023/07/21 08:32:38;;;;;;;4.25;2.20;;;;;;;;;;4953995;28;20046;-69
2023/07/21 08:35:05;;;;;;;5.72;1.60;;;;;;;;;;4950803;28;20617;-68
2023/07/21 08:37:31;;;;;;;7.45;2.22;;;;;;;;;;4968145;28;20059;-68
2023/07/21 08:39:57;;;;;;;5.10;1.98;;;;;;;;;;4949019;28;20032;-68
2023/07/21 08:42:24;;;;;;;3.58;1.67;;;;;;;;;;4952230;29;20074;-68
2023/07/21 08:44:53;;;;;;;2.28;2.05;;;;;;;;;;4953547;28;20031;-69
2023/07/21 08:47:19;;;;;;;5.03;1.85;;;;;;;;;;4953274;28;20026;-69
2023/07/21 08:49:45;;;;;;;2.95;1.70;;;;;;;;;;4968438;28;20035;-69
2023/07/21 08:52:11;;;;;;;3.80;1.52;;;;;;;;;;4950627;28;20019;-69
2023/07/21 08:54:37;;;;;;;2.28;1.65;;;;;;;;;;4947587;28;20031;-69
2023/07/21 08:57:04;;;;;;;3.00;1.98;;;;;;;;;;4953369;28;20388;-69
2023/07/21 08:59:30;;;;;;;2.78;1.60;;;;;;;;;;4953719;28;20015;-69
2023/07/21 09:01:56;;;;;;;3.80;1.50;;;;;;;;;;4953463;28;20020;-68
2023/07/21 09:04:23;;;;;;;2.85;1.58;;;;;;;;;;4953775;28;20035;-68
2023/07/21 09:06:58;;;;;;;5.32;1.63;;;;;;;;;;4953101;28;20459;-69
2023/07/21 09:09:25;;;;;;;2.70;1.80;;;;;;;;;;4953432;28;20122;-68
2023/07/21 09:12:00;;;;;;;2.03;1.50;;;;;;;;;;4953341;28;20030;-68
2023/07/21 09:14:35;;;;;;;4.05;1.75;;;;;;;;;;4953373;28;20452;-69
2023/07/21 09:17:04;;;;;;;4.55;1.58;;;;;;;;;;4953265;28;20038;-69
2023/07/21 09:19:31;;;;;;;2.58;1.27;;;;;;;;;;4953367;28;20052;-68
2023/07/21 09:21:57;;;;;;;3.45;1.63;;;;;;;;;;4953500;28;20031;-69
2023/07/21 09:24:23;;;;;;;7.47;1.95;;;;;;;;;;4967637;28;20455;-69
2023/07/21 09:26:49;;;;;;;3.85;1.50;;;;;;;;;;4952714;28;20510;-69
2023/07/21 09:29:18;;;;;;;3.50;1.15;;;;;;;;;;4941763;28;20602;-69
2023/07/21 09:31:47;;;;;;;1.83;1.52;;;;;;;;;;4951280;28;20043;-69
2023/07/21 09:34:13;;;;;;;3.45;1.63;;;;;;;;;;4952024;28;20376;-68
2023/07/21 09:36:45;;;;;;;3.47;1.58;;;;;;;;;;4953062;28;20502;-69
2023/07/21 09:39:14;;;;;;;2.53;1.35;;;;;;;;;;4951858;28;20042;-68
2023/07/21 09:41:40;;;;;;;1.50;1.40;;;;;;;;;;4953368;28;20551;-68
2023/07/21 09:44:07;;;;;;;4.05;1.65;;;;;;;;;;4943013;28;20087;-68
2023/07/21 09:46:33;;;;;;;5.82;1.92;;;;;;;;;;4937859;29;20033;-69
2023/07/21 09:48:59;;;;;;;4.55;1.80;;;;;;;;;;4952984;28;20123;-69
2023/07/21 09:51:28;;;;;;;2.15;1.83;;;;;;;;;;4952911;28;20067;-68
2023/07/21 09:53:55;;;;;;;3.35;1.55;;;;;;;;;;4937276;28;20500;-67
2023/07/21 09:56:22;;;;;;;4.85;2.00;;;;;;;;;;4949414;29;20039;-69
2023/07/21 09:58:51;;;;;;;4.28;1.77;;;;;;;;;;4925974;28;20055;-67
2023/07/21 10:01:18;;;;;;;2.63;1.50;;;;;;;;;;4928006;29;20122;-68
2023/07/21 10:03:45;;;;;;;1.73;1.45;;;;;;;;;;4928149;29;20032;-69
2023/07/21 10:06:11;;;;;;;5.57;1.48;;;;;;;;;;4931707;29;20066;-69
2023/07/21 10:08:38;;;;;;;1.63;1.50;;;;;;;;;;4943840;29;20031;-69
2023/07/21 10:11:05;;;;;;;3.53;1.60;;;;;;;;;;4942220;28;20110;-68
2023/07/21 10:13:35;;;;;;;2.20;1.20;;;;;;;;;;4933083;29;20066;-68
2023/07/21 10:16:06;;;;;;;4.28;1.20;;;;;;;;;;4937559;29;20024;-68
2023/07/21 10:18:32;;;;;;;6.35;1.83;;;;;;;;;;4929384;29;20032;-69
2023/07/21 10:20:59;;;;;;;1.85;1.60;;;;;;;;;;4933418;29;20380;-69
2023/07/21 10:23:26;;;;;;;2.92;1.30;;;;;;;;;;4931486;29;20027;-69
2023/07/21 10:25:52;;;;;;;2.20;1.83;;;;;;;;;;4928187;29;20032;-67
2023/07/21 10:28:30;;;;;;;3.20;2.13;;;;;;;;;;4915842;29;20034;-69
2023/07/21 10:31:16;;;;;;;11.38;1.88;;;;;;;;;;4914334;29;20107;-69
2023/07/21 10:33:42;;;;;;;3.17;1.83;;;;;;;;;;4920835;29;20056;-66
2023/07/21 10:36:17;;;;;;;5.57;2.08;;;;;;;;;;4931371;29;20090;-66
2023/07/21 10:38:43;;;;;;;5.72;2.58;;;;;;;;;;4926255;29;20035;-66
2023/07/21 10:41:09;;;;;;;3.60;2.42;;;;;;;;;;4932321;29;20035;-71
2023/07/21 10:43:35;;;;;;;3.08;2.15;;;;;;;;;;4935154;29;20058;-69
2023/07/21 10:46:05;;;;;;;4.68;2.25;;;;;;;;;;4934653;29;20032;-71
2023/07/21 10:48:31;;;;;;;3.05;1.85;;;;;;;;;;4935746;29;20392;-70
2023/07/21 10:50:59;;;;;;;6.03;1.77;;;;;;;;;;4936271;29;20110;-69
2023/07/21 10:53:26;;;;;;;3.33;2.05;;;;;;;;;;4936263;29;20036;-69
2023/07/21 10:55:56;;;;;;;3.95;1.80;;;;;;;;;;4936015;29;20047;-69
2023/07/21 10:58:22;;;;;;;3.92;2.08;;;;;;;;;;4935703;29;20019;-69
2023/07/21 11:00:49;;;;;;;3.15;1.95;;;;;;;;;;4936670;29;20028;-69
2023/07/21 11:03:15;;;;;;;2.00;1.77;;;;;;;;;;4936943;29;20062;-69
2023/07/21 11:05:41;;;;;;;2.25;2.05;;;;;;;;;;4936442;29;20082;-70
2023/07/21 11:08:11;;;;;;;3.13;2.40;;;;;;;;;;4936249;29;20036;-69
2023/07/21 11:10:37;;;;;;;2.67;2.20;;;;;;;;;;4936406;29;20427;-69
2023/07/21 11:13:03;;;;;;;4.05;1.50;;;;;;;;;;4937132;29;20031;-68
2023/07/21 11:15:29;;;;;;;3.75;1.90;;;;;;;;;;4936689;29;20570;-69
2023/07/21 11:18:04;;;;;;;2.72;1.80;;;;;;;;;;4936010;29;20078;-69
2023/07/21 11:20:30;;;;;;;3.03;1.67;;;;;;;;;;4936397;29;20103;-69
2023/07/21 11:22:57;;;;;;;4.95;2.00;;;;;;;;;;4936851;29;20028;-70
2023/07/21 11:25:23;;;;;;;4.55;2.30;;;;;;;;;;4936351;29;20083;-69
2023/07/21 11:27:49;;;;;;;5.43;2.40;;;;;;;;;;4936172;29;20028;-69
2023/07/21 11:30:19;;;;;;;6.68;1.90;;;;;;;;;;4936319;29;20062;-69
2023/07/21 11:32:45;;;;;;;4.45;1.90;;;;;;;;;;4934770;29;20458;-69
2023/07/21 11:35:11;;;;;;;3.97;2.22;;;;;;;;;;4934891;29;20119;-69
2023/07/21 11:37:44;;;;;;;3.83;1.83;;;;;;;;;;4934831;29;20110;-69
2023/07/21 11:40:15;;;;;;;4.07;2.08;;;;;;;;;;4935551;29;20024;-69
2023/07/21 11:42:42;;;;;;;3.10;1.98;;;;;;;;;;4935541;29;20440;-69
2023/07/21 11:45:28;;;;;;;3.78;2.38;;;;;;;;;;4935304;29;20027;-69
2023/07/21 11:47:54;;;;;;;2.40;2.20;;;;;;;;;;4934152;29;20039;-69
2023/07/21 11:50:20;;;;;;;2.50;1.83;;;;;;;;;;4935664;29;20047;-69
2023/07/21 11:52:47;;;;;;;2.85;2.33;;;;;;;;;;4935647;29;20103;-71
2023/07/21 11:55:14;;;;;;;5.95;2.53;;;;;;;;;;4935723;29;20102;-68
2023/07/21 11:57:40;;;;;;;4.95;2.78;;;;;;;;;;4935370;29;20479;-70
2023/07/21 12:00:11;;;;;;;11.55;4.00;;;;;;;;;;4935617;29;20027;-69
2023/07/21 12:02:37;;;;;;;7.10;3.42;;;;;;;;;;4935923;29;20047;-69
2023/07/21 12:05:03;;;;;;;6.55;3.38;;;;;;;;;;4935662;29;20032;-70
2023/07/21 12:07:30;;;;;;;3.33;3.03;;;;;;;;;;4935263;29;20036;-69
2023/07/21 12:09:56;;;;;;;7.03;4.30;;;;;;;;;;4935229;29;20020;-69
2023/07/21 12:12:22;;;;;;;5.00;4.50;;;;;;;;;;4935542;29;20028;-70
2023/07/21 12:14:49;;;;;;;6.88;4.88;;;;;;;;;;4934072;29;20028;-70
2023/07/21 12:17:15;;;;;;;5.75;4.55;;;;;;;;;;4934870;29;20057;-70
2023/07/21 12:19:41;;;;;;;6.90;4.20;;;;;;;;;;4935038;29;20043;-70
2023/07/21 12:22:07;;;;;;;5.43;4.50;;;;;;;;;;4935224;29;20515;-70
2023/07/21 12:24:33;;;;;;;7.65;4.80;;;;;;;;;;4934999;29;20031;-70
2023/07/21 12:26:59;;;;;;;5.93;3.90;;;;;;;;;;4934641;29;20134;-69
2023/07/21 12:29:25;;;;;;;9.65;3.75;;;;;;;;;;4934816;29;20035;-68
2023/07/21 12:31:51;;;;;;;4.57;3.83;;;;;;;;;;4934977;29;20121;-68
2023/07/21 12:34:17;;;;;;;4.07;3.63;;;;;;;;;;4934652;29;20032;-69
2023/07/21 12:36:43;;;;;;;6.38;3.92;;;;;;;;;;4934298;29;20030;-69
2023/07/21 12:39:10;;;;;;;3.33;2.97;;;;;;;;;;4934707;29;20030;-70
2023/07/21 12:41:38;;;;;;;6.18;3.72;;;;;;;;;;4934733;29;20035;-70
2023/07/21 12:44:05;;;;;;;5.10;3.33;;;;;;;;;;4934822;29;20032;-70
2023/07/21 12:46:31;;;;;;;3.03;2.78;;;;;;;;;;4934298;29;20515;-69
2023/07/21 12:48:57;;;;;;;4.85;2.70;;;;;;;;;;4934579;29;20030;-69
2023/07/21 12:51:23;;;;;;;4.70;3.38;;;;;;;;;;4934603;29;20427;-70
2023/07/21 12:53:49;;;;;;;5.07;3.25;;;;;;;;;;4934925;29;20024;-69
2023/07/21 12:56:15;;;;;;;7.05;4.70;;;;;;;;;;4934666;29;20083;-70
2023/07/21 12:58:41;;;;;;;11.18;5.47;;;;;;;;;;4933576;29;20027;-70
2023/07/21 13:01:07;;;;;;;6.40;3.58;;;;;;;;;;4934554;29;20491;-71
2023/07/21 13:03:34;;;;;;;6.53;4.20;;;;;;;;;;4934497;29;20028;-70
2023/07/21 13:06:00;;;;;;;6.93;4.38;;;;;;;;;;4934329;29;20019;-70
2023/07/21 13:08:26;;;;;;;4.53;3.20;;;;;;;;;;4934081;29;20050;-70
2023/07/21 13:10:53;;;;;;;13.38;3.42;;;;;;;;;;4933395;29;20067;-71
2023/07/21 13:13:19;;;;;;;4.00;2.83;;;;;;;;;;4934584;29;20529;-70
2023/07/21 13:15:45;;;;;;;3.33;2.63;;;;;;;;;;4934716;29;20058;-69
2023/07/21 13:18:11;;;;;;;3.13;2.60;;;;;;;;;;4934521;29;20028;-70
2023/07/21 13:20:37;;;;;;;3.35;3.05;;;;;;;;;;4935259;29;20071;-70
2023/07/21 13:23:03;;;;;;;3.50;2.67;;;;;;;;;;4934368;29;20032;-70
2023/07/21 13:25:29;;;;;;;2.75;2.45;;;;;;;;;;4932742;29;20514;-70
2023/07/21 13:27:55;;;;;;;2.78;2.50;;;;;;;;;;4933947;29;20047;-70
2023/07/21 13:30:21;;;;;;;6.68;2.53;;;;;;;;;;4934345;29;20042;-69
2023/07/21 13:32:47;;;;;;;8.07;2.45;;;;;;;;;;4934316;29;20220;-70
2023/07/21 13:35:13;;;;;;;3.50;2.28;;;;;;;;;;4934087;29;20024;-70
2023/07/21 13:37:39;;;;;;;5.65;2.47;;;;;;;;;;4934109;29;20030;-70
2023/07/21 13:40:06;;;;;;;2.72;2.35;;;;;;;;;;4934238;29;20054;-70
2023/07/21 13:42:32;;;;;;;2.25;1.83;;;;;;;;;;4933149;29;20034;-71
2023/07/21 13:44:58;;;;;;;2.35;1.83;;;;;;;;;;4934572;29;20117;-71
2023/07/21 13:47:25;;;;;;;3.80;2.10;;;;;;;;;;4933517;29;20472;-71
2023/07/21 13:49:52;;;;;;;2.15;1.95;;;;;;;;;;4933978;29;20462;-71
2023/07/21 13:52:18;;;;;;;4.22;2.20;;;;;;;;;;4933924;29;20484;-70
2023/07/21 13:54:44;;;;;;;2.70;2.25;;;;;;;;;;4934126;29;20079;-70
2023/07/21 13:57:12;;;;;;;4.25;2.70;;;;;;;;;;4933468;29;20471;-70
2023/07/21 13:59:38;;;;;;;2.72;1.80;;;;;;;;;;4934069;29;20404;-70
2023/07/21 14:02:04;;;;;;;6.15;2.08;;;;;;;;;;4933809;29;20479;-70
2023/07/21 14:04:30;;;;;;;3.28;2.38;;;;;;;;;;4933617;29;20403;-70
2023/07/21 14:06:56;;;;;;;3.03;2.20;;;;;;;;;;4933644;29;20030;-70
2023/07/21 14:09:22;;;;;;;4.22;2.03;;;;;;;;;;4933759;29;20126;-70
2023/07/21 14:11:48;;;;;;;3.78;2.22;;;;;;;;;;4934971;29;20488;-69
2023/07/21 14:14:14;;;;;;;1.50;1.35;;;;;;;;;;4937514;29;20107;-70
2023/07/21 14:16:40;;;;;;;3.22;2.10;;;;;;;;;;4937003;29;20023;-70
2023/07/21 14:19:06;;;;;;;2.60;1.80;;;;;;;;;;4937516;29;20083;-70
2023/07/21 14:21:33;;;;;;;3.20;1.92;;;;;;;;;;4937423;29;20043;-70
2023/07/21 14:24:00;;;;;;;3.05;2.30;;;;;;;;;;4936271;29;20530;-69
2023/07/21 14:26:26;;;;;;;2.10;1.63;;;;;;;;;;4940201;29;20039;-69
2023/07/21 14:28:52;;;;;;;3.13;2.17;;;;;;;;;;4956330;28;20122;-69
2023/07/21 14:31:19;;;;;;;2.40;1.70;;;;;;;;;;4956102;28;20066;-70
2023/07/21 14:33:45;;;;;;;2.15;1.63;;;;;;;;;;4956277;28;20361;-70
2023/07/21 14:36:11;;;;;;;1.90;1.70;;;;;;;;;;4952005;28;20078;-70
2023/07/21 14:38:37;;;;;;;2.90;2.05;;;;;;;;;;4936673;29;20070;-69
2023/07/21 14:41:03;;;;;;;3.92;1.70;;;;;;;;;;4936531;29;20110;-70